createdAt,value
2019-05-18T00:00:31.009Z,30.88
2019-05-18T00:03:01.905Z,30.91
2019-05-18T00:05:32.176Z,30.96
2019-05-18T00:08:02.461Z,31.01
2019-05-18T00:10:33.526Z,31.05
2019-05-18T00:13:03.843Z,31.10
2019-05-18T00:15:34.159Z,31.15
2019-05-18T00:18:04.545Z,31.17
2019-05-18T00:20:34.889Z,31.21
2019-05-18T00:23:05.184Z,31.28
2019-05-18T00:25:35.935Z,31.33
2019-05-18T00:28:06.227Z,31.37
2019-05-18T00:30:36.530Z,31.42
2019-05-18T00:33:07.145Z,31.50
2019-05-18T00:35:37.554Z,31.56
2019-05-18T00:38:08.196Z,31.65
2019-05-18T00:40:38.643Z,31.73
2019-05-18T00:43:08.977Z,31.80
2019-05-18T00:45:39.325Z,31.87
2019-05-18T00:48:10.510Z,31.94
2019-05-18T00:50:42.504Z,31.99
2019-05-18T00:53:12.852Z,32.02
2019-05-18T00:55:43.150Z,32.09
2019-05-18T00:58:13.806Z,32.16
2019-05-18T01:00:44.164Z,32.19
2019-05-18T01:03:14.620Z,32.24
2019-05-18T01:05:46.363Z,32.30
2019-05-18T01:08:17.325Z,32.36
2019-05-18T01:10:48.546Z,32.39
2019-05-18T01:13:19.187Z,32.44
2019-05-18T01:15:49.511Z,32.48
2019-05-18T01:18:19.621Z,32.52
2019-05-18T01:20:52.335Z,32.57
2019-05-18T01:23:22.669Z,32.60
2019-05-18T01:25:53.413Z,32.63
2019-05-18T01:28:24.576Z,32.67
2019-05-18T01:30:54.857Z,32.72
2019-05-18T01:33:25.171Z,32.77
2019-05-18T01:35:55.895Z,32.82
2019-05-18T01:38:26.250Z,32.85
2019-05-18T01:40:56.850Z,32.91
2019-05-18T01:43:27.431Z,32.98
2019-05-18T01:45:57.741Z,33.01
2019-05-18T01:48:29.470Z,33.04
2019-05-18T01:51:01.376Z,33.06
2019-05-18T01:53:33.773Z,33.12
2019-05-18T01:56:04.086Z,33.14
2019-05-18T01:58:34.347Z,33.20
2019-05-18T02:01:04.625Z,33.23
2019-05-18T02:03:35.285Z,33.28
2019-05-18T02:06:05.689Z,33.32
2019-05-18T02:08:40.457Z,33.34
2019-05-18T02:11:11.132Z,33.37
2019-05-18T02:13:41.391Z,33.41
2019-05-18T02:16:13.393Z,33.42
2019-05-18T02:18:43.748Z,33.47
2019-05-18T02:21:14.417Z,33.50
2019-05-18T02:23:45.211Z,33.51
2019-05-18T02:26:15.521Z,33.54
2019-05-18T02:28:46.211Z,33.53
2019-05-18T02:31:16.581Z,33.57
2019-05-18T02:33:49.197Z,33.58
2019-05-18T02:36:19.518Z,33.62
2019-05-18T02:38:50.110Z,33.66
2019-05-18T02:41:23.780Z,33.67
2019-05-18T02:43:56.587Z,33.72
2019-05-18T02:46:31.222Z,33.76
2019-05-18T02:49:01.521Z,33.81
2019-05-18T02:51:31.626Z,33.86
2019-05-18T02:54:03.174Z,33.92
2019-05-18T02:56:35.801Z,33.97
2019-05-18T02:59:07.892Z,34.02
2019-05-18T03:01:38.439Z,34.08
2019-05-18T03:04:08.970Z,34.15
2019-05-18T03:06:39.235Z,34.20
2019-05-18T03:09:12.090Z,34.22
2019-05-18T03:11:42.468Z,34.31
2019-05-18T03:14:13.440Z,34.33
2019-05-18T03:16:44.170Z,34.40
2019-05-18T03:19:15.686Z,34.50
2019-05-18T03:21:46.427Z,34.54
2019-05-18T03:24:22.426Z,34.61
2019-05-18T03:26:52.766Z,34.68
2019-05-18T03:29:23.462Z,34.72
2019-05-18T03:31:53.783Z,34.79
2019-05-18T03:34:24.043Z,34.84
2019-05-18T03:36:54.529Z,34.90
2019-05-18T03:39:25.474Z,34.94
2019-05-18T03:41:55.705Z,34.96
2019-05-18T03:44:25.971Z,34.99
2019-05-18T03:46:56.458Z,35.02
2019-05-18T03:49:27.817Z,35.07
2019-05-18T03:51:58.300Z,35.11
2019-05-18T03:54:28.632Z,35.16
2019-05-18T03:56:58.975Z,35.21
2019-05-18T03:59:30.699Z,35.29
2019-05-18T04:02:01.092Z,35.37
2019-05-18T04:04:33.020Z,35.44
2019-05-18T04:07:03.337Z,35.53
2019-05-18T04:09:33.656Z,35.61
2019-05-18T04:12:03.906Z,35.68
2019-05-18T04:14:34.391Z,35.74
2019-05-18T04:17:04.759Z,35.81
2019-05-18T04:19:45.510Z,35.89
2019-05-18T04:22:07.054Z,35.95
2019-05-18T04:24:37.389Z,36.01
2019-05-18T04:27:09.606Z,36.07
2019-05-18T04:29:39.899Z,36.11
2019-05-18T04:32:11.304Z,36.16
2019-05-18T04:34:41.576Z,36.21
2019-05-18T04:37:12.231Z,36.29
2019-05-18T04:39:42.837Z,36.36
2019-05-18T04:42:13.546Z,36.43
2019-05-18T04:44:43.927Z,36.49
2019-05-18T04:47:14.575Z,36.55
2019-05-18T04:50:04.439Z,36.62
2019-05-18T04:52:24.457Z,36.67
2019-05-18T04:54:55.083Z,36.75
2019-05-18T04:57:25.858Z,36.78
2019-05-18T04:59:56.559Z,36.84
2019-05-18T05:02:26.887Z,36.90
2019-05-18T05:04:57.182Z,36.95
2019-05-18T05:07:27.524Z,37.01
2019-05-18T05:09:59.025Z,37.06
2019-05-18T05:12:29.638Z,37.13
2019-05-18T05:15:00.915Z,37.20
2019-05-18T05:17:31.234Z,37.26
2019-05-18T05:20:01.534Z,37.29
2019-05-18T05:22:32.043Z,37.36
2019-05-18T05:25:03.159Z,37.43
2019-05-18T05:27:33.463Z,37.48
2019-05-18T05:30:04.190Z,37.52
2019-05-18T05:32:35.360Z,37.58
2019-05-18T05:35:10.659Z,37.63
2019-05-18T05:37:40.998Z,37.68
2019-05-18T05:40:12.205Z,37.72
2019-05-18T05:42:43.839Z,37.77
2019-05-18T05:45:16.245Z,37.82
2019-05-18T05:47:46.700Z,37.89
2019-05-18T05:50:34.140Z,37.93
2019-05-18T05:52:51.638Z,37.95
2019-05-18T05:55:24.269Z,38.02
2019-05-18T05:57:55.146Z,38.06
2019-05-18T06:00:25.457Z,38.11
2019-05-18T06:02:55.810Z,38.16
2019-05-18T06:05:26.216Z,38.21
2019-05-18T06:07:56.518Z,38.28
2019-05-18T06:10:26.862Z,38.35
2019-05-18T06:12:57.486Z,38.38
2019-05-18T06:15:28.229Z,38.47
2019-05-18T06:17:59.665Z,38.48
2019-05-18T06:20:30.337Z,38.55
2019-05-18T06:23:00.682Z,38.58
2019-05-18T06:25:34.229Z,38.61
2019-05-18T06:28:03.043Z,38.63
2019-05-18T06:30:33.378Z,38.66
2019-05-18T06:33:04.072Z,38.70
2019-05-18T06:35:35.126Z,38.72
2019-05-18T06:38:05.572Z,38.72
2019-05-18T06:40:35.954Z,38.75
2019-05-18T06:43:06.683Z,38.79
2019-05-18T06:45:37.070Z,38.81
2019-05-18T06:48:09.291Z,38.86
2019-05-18T06:50:39.589Z,38.91
2019-05-18T06:53:09.742Z,38.95
2019-05-18T06:55:42.064Z,38.98
2019-05-18T06:58:12.569Z,39.03
2019-05-18T07:00:42.915Z,39.03
2019-05-18T07:03:13.226Z,39.06
2019-05-18T07:05:45.540Z,39.09
2019-05-18T07:08:16.438Z,39.12
2019-05-18T07:10:46.760Z,39.13
2019-05-18T07:13:19.158Z,39.14
2019-05-18T07:15:49.496Z,39.14
2019-05-18T07:18:23.597Z,39.16
2019-05-18T07:20:57.476Z,39.19
2019-05-18T07:23:27.765Z,39.21
2019-05-18T07:25:58.069Z,39.25
2019-05-18T07:28:28.717Z,39.28
2019-05-18T07:30:58.984Z,39.33
2019-05-18T07:33:31.551Z,39.36
2019-05-18T07:36:01.920Z,39.40
2019-05-18T07:38:32.865Z,39.43
2019-05-18T07:41:03.205Z,39.45
2019-05-18T07:43:36.221Z,39.49
2019-05-18T07:46:08.752Z,39.54
2019-05-18T07:48:38.577Z,39.55
2019-05-18T07:51:09.022Z,39.60
2019-05-18T07:53:39.428Z,39.63
2019-05-18T07:56:10.109Z,39.67
2019-05-18T07:58:43.673Z,39.71
2019-05-18T08:01:13.994Z,39.75
2019-05-18T08:03:44.355Z,39.81
2019-05-18T08:06:15.077Z,39.82
2019-05-18T08:08:45.893Z,39.93
2019-05-18T08:11:18.023Z,40.02
2019-05-18T08:13:48.414Z,40.08
2019-05-18T08:16:25.804Z,40.12
2019-05-18T08:18:58.197Z,40.15
2019-05-18T08:21:29.034Z,40.23
2019-05-18T08:23:59.375Z,40.28
2019-05-18T08:26:29.976Z,40.32
2019-05-18T08:29:01.646Z,40.39
2019-05-18T08:31:32.154Z,40.48
2019-05-18T08:34:03.661Z,40.65
2019-05-18T08:36:36.597Z,40.75
2019-05-18T08:39:10.093Z,40.82
2019-05-18T08:41:41.482Z,40.98
2019-05-18T08:44:11.856Z,40.94
2019-05-18T08:46:42.283Z,41.03
2019-05-18T08:49:12.831Z,41.04
2019-05-18T08:51:43.205Z,41.12
2019-05-18T08:54:13.472Z,41.10
2019-05-18T08:56:44.351Z,41.01
2019-05-18T08:59:14.784Z,40.94
2019-05-18T09:01:45.081Z,40.81
2019-05-18T09:04:16.809Z,40.80
2019-05-18T09:06:47.763Z,40.81
2019-05-18T09:09:18.091Z,40.81
2019-05-18T09:11:51.365Z,40.79
2019-05-18T09:14:23.776Z,40.79
2019-05-18T09:16:54.079Z,40.75
2019-05-18T09:19:24.738Z,40.76
2019-05-18T09:21:55.173Z,40.77
2019-05-18T09:24:25.691Z,40.78
2019-05-18T09:26:56.099Z,40.85
2019-05-18T09:29:28.081Z,40.96
2019-05-18T09:31:58.404Z,41.01
2019-05-18T09:34:29.128Z,41.02
2019-05-18T09:37:02.635Z,41.03
2019-05-18T09:39:33.336Z,41.03
2019-05-18T09:42:06.698Z,41.11
2019-05-18T09:44:37.534Z,41.06
2019-05-18T09:47:07.873Z,41.13
2019-05-18T09:49:38.537Z,41.27
2019-05-18T09:52:13.988Z,41.30
2019-05-18T09:54:46.665Z,41.37
2019-05-18T09:57:21.910Z,41.44
2019-05-18T09:59:52.212Z,41.42
2019-05-18T10:02:24.996Z,41.38
2019-05-18T10:04:55.435Z,41.40
2019-05-18T10:07:26.822Z,41.42
2019-05-18T10:09:58.525Z,41.32
2019-05-18T10:12:30.208Z,41.32
2019-05-18T10:15:00.553Z,41.27
2019-05-18T10:17:31.309Z,41.27
2019-05-18T10:20:01.613Z,41.27
2019-05-18T10:22:55.514Z,41.36
2019-05-18T10:25:18.685Z,41.39
2019-05-18T10:27:49.100Z,41.37
2019-05-18T10:30:20.348Z,41.37
2019-05-18T10:32:53.064Z,41.37
2019-05-18T10:35:23.979Z,41.33
2019-05-18T10:37:56.210Z,41.39
2019-05-18T10:40:26.564Z,41.33
2019-05-18T10:42:57.086Z,41.30
2019-05-18T10:45:27.388Z,41.35
2019-05-18T10:48:00.186Z,41.38
2019-05-18T10:50:31.834Z,41.20
2019-05-18T10:53:02.218Z,41.19
2019-05-18T10:55:32.533Z,41.18
2019-05-18T10:58:04.016Z,41.20
2019-05-18T11:00:34.603Z,41.16
2019-05-18T11:03:05.057Z,40.99
2019-05-18T11:05:35.399Z,40.98
2019-05-18T11:08:05.702Z,40.98
2019-05-18T11:10:36.795Z,40.91
2019-05-18T11:13:07.145Z,40.76
2019-05-18T11:15:37.290Z,40.77
2019-05-18T11:18:07.660Z,40.71
2019-05-18T11:20:38.822Z,40.77
2019-05-18T11:23:09.214Z,40.70
2019-05-18T11:25:42.611Z,40.53
2019-05-18T11:28:14.701Z,40.40
2019-05-18T11:30:45.627Z,40.28
2019-05-18T11:33:15.932Z,40.15
2019-05-18T11:35:46.279Z,40.17
2019-05-18T11:38:16.930Z,40.17
2019-05-18T11:40:49.085Z,40.10
2019-05-18T11:43:19.366Z,40.10
2019-05-18T11:45:50.057Z,40.11
2019-05-18T11:48:20.374Z,40.04
2019-05-18T11:50:50.740Z,39.93
2019-05-18T11:53:21.228Z,39.90
2019-05-18T11:55:53.348Z,39.80
2019-05-18T11:58:25.682Z,39.78
2019-05-18T12:00:56.039Z,39.71
2019-05-18T12:03:26.320Z,39.69
2019-05-18T12:05:56.716Z,39.56
2019-05-18T12:08:27.030Z,39.55
2019-05-18T12:10:58.014Z,39.47
2019-05-18T12:13:30.559Z,39.37
2019-05-18T12:16:00.839Z,39.31
2019-05-18T12:18:31.647Z,39.30
2019-05-18T12:21:04.257Z,39.20
2019-05-18T12:23:34.899Z,39.20
2019-05-18T12:26:06.364Z,39.14
2019-05-18T12:28:36.684Z,39.05
2019-05-18T12:31:07.099Z,39.01
2019-05-18T12:33:40.589Z,38.99
2019-05-18T12:36:10.934Z,38.97
2019-05-18T12:38:41.812Z,38.90
2019-05-18T12:41:12.096Z,38.90
2019-05-18T12:43:44.677Z,38.91
2019-05-18T12:46:15.454Z,38.88
2019-05-18T12:48:45.821Z,38.86
2019-05-18T12:51:21.478Z,38.81
2019-05-18T12:53:51.728Z,38.74
2019-05-18T12:56:22.368Z,38.70
2019-05-18T12:58:56.358Z,38.67
2019-05-18T13:01:26.680Z,38.62
2019-05-18T13:03:59.945Z,38.62
2019-05-18T13:06:30.271Z,38.62
2019-05-18T13:09:00.747Z,38.59
2019-05-18T13:11:32.643Z,38.51
2019-05-18T13:14:03.855Z,38.49
2019-05-18T13:16:35.011Z,38.47
2019-05-18T13:19:06.631Z,38.40
2019-05-18T13:21:37.014Z,38.31
2019-05-18T13:24:08.290Z,38.31
2019-05-18T13:26:41.822Z,38.28
2019-05-18T13:29:13.540Z,38.32
2019-05-18T13:31:43.956Z,38.33
2019-05-18T13:34:14.600Z,38.27
2019-05-18T13:36:44.957Z,38.19
2019-05-18T13:39:15.257Z,38.13
2019-05-18T13:41:47.058Z,38.04
2019-05-18T13:44:17.921Z,37.98
2019-05-18T13:46:48.468Z,37.99
2019-05-18T13:49:24.728Z,37.90
2019-05-18T13:51:55.256Z,37.85
2019-05-18T13:54:25.845Z,37.80
2019-05-18T13:56:56.503Z,37.74
2019-05-18T13:59:27.250Z,37.73
2019-05-18T14:01:57.855Z,37.71
2019-05-18T14:04:32.201Z,37.69
2019-05-18T14:07:03.666Z,37.65
2019-05-18T14:09:35.167Z,37.64
2019-05-18T14:12:09.162Z,37.58
2019-05-18T14:14:39.546Z,37.49
2019-05-18T14:17:09.846Z,37.47
2019-05-18T14:19:40.230Z,37.48
2019-05-18T14:22:11.376Z,37.47
2019-05-18T14:24:43.281Z,37.46
2019-05-18T14:27:14.398Z,37.47
2019-05-18T14:29:44.734Z,37.45
2019-05-18T14:32:18.628Z,37.41
2019-05-18T14:34:48.951Z,37.45
2019-05-18T14:37:22.166Z,37.37
2019-05-18T14:39:54.552Z,37.28
2019-05-18T14:42:25.080Z,37.23
2019-05-18T14:44:55.842Z,37.21
2019-05-18T14:47:28.106Z,37.19
2019-05-18T14:49:59.170Z,37.15
2019-05-18T14:52:29.514Z,37.18
2019-05-18T14:54:59.840Z,37.21
2019-05-18T14:57:31.069Z,37.26
2019-05-18T15:00:02.523Z,37.25
2019-05-18T15:02:33.096Z,37.23
2019-05-18T15:05:03.372Z,37.12
2019-05-18T15:07:34.045Z,37.05
2019-05-18T15:10:05.785Z,36.98
2019-05-18T15:12:39.233Z,36.93
2019-05-18T15:15:11.012Z,36.89
2019-05-18T15:17:50.908Z,36.82
2019-05-18T15:20:22.959Z,36.80
2019-05-18T15:22:54.855Z,36.74
2019-05-18T15:25:25.209Z,36.70
2019-05-18T15:27:57.081Z,36.66
2019-05-18T15:30:27.506Z,36.65
2019-05-18T15:32:58.420Z,36.61
2019-05-18T15:35:28.762Z,36.59
2019-05-18T15:37:59.230Z,36.59
2019-05-18T15:40:29.961Z,36.58
2019-05-18T15:43:02.577Z,36.59
2019-05-18T15:45:33.250Z,36.59
2019-05-18T15:48:03.573Z,36.56
2019-05-18T15:50:33.888Z,36.58
2019-05-18T15:53:04.240Z,36.58
2019-05-18T15:55:35.527Z,36.61
2019-05-18T15:58:06.266Z,36.59
2019-05-18T16:00:36.969Z,36.57
2019-05-18T16:03:09.642Z,36.52
2019-05-18T16:05:42.279Z,36.48
2019-05-18T16:08:13.275Z,36.47
2019-05-18T16:10:43.450Z,36.45
2019-05-18T16:13:15.318Z,36.49
2019-05-18T16:15:47.265Z,36.48
2019-05-18T16:18:17.705Z,36.50
2019-05-18T16:20:49.366Z,36.45
2019-05-18T16:23:19.788Z,36.43
2019-05-18T16:25:50.363Z,36.43
2019-05-18T16:28:21.306Z,36.42
2019-05-18T16:30:53.254Z,36.43
2019-05-18T16:33:23.569Z,36.41
2019-05-18T16:35:56.947Z,36.38
2019-05-18T16:38:27.284Z,36.40
2019-05-18T16:40:59.610Z,36.39
2019-05-18T16:43:31.467Z,36.38
2019-05-18T16:46:02.837Z,36.35
2019-05-18T16:48:33.228Z,36.31
2019-05-18T16:51:04.280Z,36.30
2019-05-18T16:53:37.617Z,36.29
2019-05-18T16:56:07.885Z,36.26
2019-05-18T16:58:41.644Z,36.23
2019-05-18T17:01:11.933Z,36.21
2019-05-18T17:03:42.620Z,36.21
2019-05-18T17:06:16.174Z,36.21
2019-05-18T17:08:46.731Z,36.20
2019-05-18T17:11:17.618Z,36.15
2019-05-18T17:13:48.038Z,36.15
2019-05-18T17:16:21.582Z,36.14
2019-05-18T17:18:52.195Z,36.15
2019-05-18T17:21:22.606Z,36.16
2019-05-18T17:23:57.421Z,36.17
2019-05-18T17:26:27.899Z,36.16
2019-05-18T17:28:59.862Z,36.17
2019-05-18T17:31:31.665Z,36.19
2019-05-18T17:34:02.036Z,36.20
2019-05-18T17:36:37.982Z,36.22
2019-05-18T17:39:08.411Z,36.20
2019-05-18T17:41:40.042Z,36.26
2019-05-18T17:44:10.641Z,36.26
2019-05-18T17:46:42.668Z,36.28
2019-05-18T17:49:25.885Z,36.30
2019-05-18T17:51:47.551Z,36.32
2019-05-18T17:54:18.130Z,36.34
2019-05-18T17:56:48.403Z,36.34
2019-05-18T17:59:18.728Z,36.35
2019-05-18T18:01:49.827Z,36.37
2019-05-18T18:04:20.286Z,36.42
2019-05-18T18:06:50.637Z,36.44
2019-05-18T18:09:21.055Z,36.44
2019-05-18T18:11:51.366Z,36.49
2019-05-18T18:14:22.284Z,36.51
2019-05-18T18:16:52.661Z,36.51
2019-05-18T18:19:25.582Z,36.51
2019-05-18T18:21:58.054Z,36.56
2019-05-18T18:24:29.786Z,36.57
2019-05-18T18:27:00.197Z,36.59
2019-05-18T18:29:30.526Z,36.61
2019-05-18T18:32:11.076Z,36.64
2019-05-18T18:34:45.166Z,36.65
2019-05-18T18:37:17.486Z,36.66
2019-05-18T18:39:48.460Z,36.69
2019-05-18T18:42:18.874Z,36.70
2019-05-18T18:44:50.581Z,36.72
2019-05-18T18:47:24.208Z,36.75
2019-05-18T18:49:54.327Z,36.78
2019-05-18T18:52:26.489Z,36.80
2019-05-18T18:54:57.199Z,36.82
2019-05-18T18:57:40.767Z,36.85
2019-05-18T19:00:03.881Z,36.87
2019-05-18T19:02:36.956Z,36.90
2019-05-18T19:05:07.968Z,36.93
2019-05-18T19:07:38.308Z,36.95
2019-05-18T19:10:10.757Z,36.97
2019-05-18T19:12:41.906Z,37.00
2019-05-18T19:15:13.716Z,37.00
2019-05-18T19:17:44.322Z,37.03
2019-05-18T19:20:15.503Z,37.05
2019-05-18T19:22:45.795Z,37.06
2019-05-18T19:25:16.555Z,37.09
2019-05-18T19:27:55.004Z,37.11
2019-05-18T19:30:22.296Z,37.14
2019-05-18T19:32:53.472Z,37.18
2019-05-18T19:35:24.258Z,37.20
2019-05-18T19:37:54.598Z,37.21
2019-05-18T19:40:24.912Z,37.23
2019-05-18T19:42:55.209Z,37.25
2019-05-18T19:45:25.784Z,37.27
2019-05-18T19:47:56.194Z,37.30
2019-05-18T19:50:31.676Z,37.32
2019-05-18T19:53:02.086Z,37.34
2019-05-18T19:55:33.531Z,37.37
2019-05-18T19:58:09.017Z,37.39
2019-05-18T20:00:36.006Z,37.42
2019-05-18T20:03:06.496Z,37.45
2019-05-18T20:05:39.121Z,37.46
2019-05-18T20:08:11.108Z,37.46
2019-05-18T20:10:41.475Z,37.51
2019-05-18T20:13:11.751Z,37.52
2019-05-18T20:15:42.218Z,37.55
2019-05-18T20:18:12.545Z,37.58
2019-05-18T20:20:42.845Z,37.60
2019-05-18T20:23:13.285Z,37.61
2019-05-18T20:25:43.888Z,37.62
2019-05-18T20:28:23.518Z,37.68
2019-05-18T20:30:46.441Z,37.71
2019-05-18T20:33:16.725Z,37.72
2019-05-18T20:35:47.654Z,37.74
2019-05-18T20:38:18.021Z,37.76
2019-05-18T20:40:48.682Z,37.80
2019-05-18T20:43:18.984Z,37.82
2019-05-18T20:45:49.767Z,37.85
2019-05-18T20:48:21.164Z,37.87
2019-05-18T20:50:51.471Z,37.90
2019-05-18T20:53:21.832Z,37.92
2019-05-18T20:55:52.180Z,37.95
2019-05-18T20:58:22.526Z,37.98
2019-05-18T21:00:52.634Z,38.00
2019-05-18T21:03:23.472Z,38.04
2019-05-18T21:05:53.627Z,38.05
2019-05-18T21:08:23.978Z,38.08
2019-05-18T21:10:56.707Z,38.11
2019-05-18T21:13:28.957Z,38.14
2019-05-18T21:15:59.283Z,38.16
2019-05-18T21:18:31.982Z,38.19
2019-05-18T21:21:02.492Z,38.22
2019-05-18T21:23:32.785Z,38.24
2019-05-18T21:26:06.312Z,38.26
2019-05-18T21:28:53.424Z,38.30
2019-05-18T21:31:11.669Z,38.33
2019-05-18T21:33:41.997Z,38.35
2019-05-18T21:36:13.480Z,38.38
2019-05-18T21:38:47.664Z,38.41
2019-05-18T21:41:18.078Z,38.45
2019-05-18T21:43:48.364Z,38.49
2019-05-18T21:46:19.036Z,38.52
2019-05-18T21:48:50.056Z,38.57
2019-05-18T21:51:21.945Z,38.58
2019-05-18T21:53:52.313Z,38.62
2019-05-18T21:56:23.485Z,38.66
2019-05-18T21:58:54.017Z,38.69
2019-05-18T22:01:26.898Z,38.72
2019-05-18T22:03:57.605Z,38.75
2019-05-18T22:06:27.889Z,38.78
2019-05-18T22:08:58.530Z,38.82
2019-05-18T22:11:31.371Z,38.85
2019-05-18T22:14:01.893Z,38.85
2019-05-18T22:16:35.089Z,38.90
2019-05-18T22:19:05.874Z,38.94
2019-05-18T22:21:36.236Z,38.96
2019-05-18T22:24:14.447Z,38.98
2019-05-18T22:26:44.903Z,39.02
2019-05-18T22:29:15.250Z,39.04
2019-05-18T22:31:45.362Z,39.06
2019-05-18T22:34:15.724Z,39.06
2019-05-18T22:36:46.458Z,39.08
2019-05-18T22:39:16.742Z,39.12
2019-05-18T22:41:46.914Z,39.14
2019-05-18T22:44:17.650Z,39.16
2019-05-18T22:46:50.751Z,39.18
2019-05-18T22:49:21.079Z,39.20
2019-05-18T22:51:51.387Z,39.24
2019-05-18T22:54:25.004Z,39.25
2019-05-18T22:56:57.499Z,39.28
2019-05-18T22:59:27.879Z,39.27
2019-05-18T23:01:58.204Z,39.31
2019-05-18T23:04:28.601Z,39.34
2019-05-18T23:06:58.976Z,39.36
2019-05-18T23:09:29.273Z,39.40
2019-05-18T23:11:59.886Z,39.42
2019-05-18T23:14:32.416Z,39.46
2019-05-18T23:17:03.553Z,39.50
2019-05-18T23:19:33.862Z,39.50
2019-05-18T23:22:05.804Z,39.54
2019-05-18T23:24:36.094Z,39.55
2019-05-18T23:27:06.397Z,39.56
2019-05-18T23:29:36.703Z,39.59
2019-05-18T23:32:08.696Z,39.63
2019-05-18T23:34:39.003Z,39.66
2019-05-18T23:37:11.527Z,39.67
2019-05-18T23:39:41.942Z,39.71
2019-05-18T23:42:12.657Z,39.75
2019-05-18T23:44:43.941Z,39.80
2019-05-18T23:47:14.587Z,39.81
2019-05-18T23:49:45.079Z,39.85
2019-05-18T23:52:15.709Z,39.87
2019-05-18T23:54:45.966Z,39.89
2019-05-18T23:57:16.329Z,39.92
2019-05-18T23:59:46.793Z,39.94
